createdAt,value
2023-04-13T00:00:21.882Z,90.96
2023-04-13T00:01:24.053Z,90.24
2023-04-13T00:02:26.420Z,90.04
2023-04-13T00:03:34.907Z,89.92
2023-04-13T00:04:37.492Z,90.23
2023-04-13T00:05:40.199Z,90.52
2023-04-13T00:06:42.993Z,90.57
2023-04-13T00:07:44.930Z,89.95
2023-04-13T00:08:46.988Z,90.01
2023-04-13T00:09:51.010Z,90.35
2023-04-13T00:10:54.575Z,90.38
2023-04-13T00:11:58.325Z,91.43
2023-04-13T00:13:02.173Z,90.71
2023-04-13T00:14:04.050Z,90.14
2023-04-13T00:15:06.130Z,90.04
2023-04-13T00:16:09.267Z,89.94
2023-04-13T00:17:11.426Z,89.96
2023-04-13T00:18:13.310Z,89.98
2023-04-13T00:19:15.212Z,89.88
2023-04-13T00:20:18.028Z,89.54
2023-04-13T00:21:19.899Z,89.24
2023-04-13T00:22:21.720Z,89.40
2023-04-13T00:23:23.510Z,88.94
2023-04-13T00:24:25.327Z,89.08
2023-04-13T00:25:27.356Z,89.20
2023-04-13T00:26:29.305Z,89.60
2023-04-13T00:27:31.117Z,88.65
2023-04-13T00:28:33.647Z,88.31
2023-04-13T00:29:36.076Z,88.16
2023-04-13T00:30:38.033Z,88.13
2023-04-13T00:31:40.554Z,88.70
2023-04-13T00:32:43.338Z,88.16
2023-04-13T00:33:45.264Z,88.24
2023-04-13T00:34:47.207Z,88.33
2023-04-13T00:35:49.098Z,88.84
2023-04-13T00:36:50.981Z,88.37
2023-04-13T00:37:53.653Z,88.86
2023-04-13T00:38:57.579Z,88.99
2023-04-13T00:39:59.956Z,89.69
2023-04-13T00:41:02.621Z,90.05
2023-04-13T00:42:06.042Z,90.11
2023-04-13T00:43:07.901Z,89.87
2023-04-13T00:44:09.812Z,88.78
2023-04-13T00:45:13.766Z,88.51
2023-04-13T00:46:16.735Z,88.40
2023-04-13T00:47:26.876Z,87.89
2023-04-13T00:48:28.909Z,87.72
2023-04-13T00:49:31.763Z,88.11
2023-04-13T00:50:34.538Z,87.48
2023-04-13T00:51:36.409Z,87.31
2023-04-13T00:52:41.309Z,87.65
2023-04-13T00:53:43.899Z,87.41
2023-04-13T00:54:45.697Z,87.41
2023-04-13T00:55:48.900Z,87.93
2023-04-13T00:56:51.511Z,87.06
2023-04-13T00:57:53.620Z,87.32
2023-04-13T00:58:56.757Z,87.22
2023-04-13T00:59:59.267Z,87.72
2023-04-13T01:01:01.180Z,87.82
2023-04-13T01:02:05.831Z,87.55
2023-04-13T01:03:08.378Z,87.69
2023-04-13T01:04:10.593Z,87.32
2023-04-13T01:05:14.438Z,87.94
2023-04-13T01:06:18.188Z,88.78
2023-04-13T01:07:24.503Z,88.41
2023-04-13T01:08:29.433Z,89.30
2023-04-13T01:09:41.518Z,89.08
2023-04-13T01:10:48.263Z,89.82
2023-04-13T01:11:56.835Z,89.83
2023-04-13T01:12:58.669Z,90.26
2023-04-13T01:14:03.615Z,90.20
2023-04-13T01:15:13.034Z,90.21
2023-04-13T01:16:19.548Z,89.76
2023-04-13T01:17:23.857Z,89.66
2023-04-13T01:18:26.771Z,89.30
2023-04-13T01:19:42.923Z,89.09
2023-04-13T01:20:46.735Z,89.74
2023-04-13T01:21:55.016Z,89.57
2023-04-13T01:22:58.134Z,89.48
2023-04-13T01:24:19.085Z,89.52
2023-04-13T01:25:31.166Z,89.77
2023-04-13T01:26:48.074Z,89.37
2023-04-13T01:27:52.453Z,89.22
2023-04-13T01:28:54.652Z,89.51
2023-04-13T01:29:57.249Z,88.96
2023-04-13T01:31:01.671Z,88.96
2023-04-13T01:32:03.656Z,88.81
2023-04-13T01:33:06.876Z,88.56
2023-04-13T01:34:09.672Z,88.71
2023-04-13T01:35:11.884Z,89.16
2023-04-13T01:36:15.109Z,89.02
2023-04-13T01:37:17.743Z,89.16
2023-04-13T01:38:24.848Z,89.54
2023-04-13T01:39:32.295Z,89.66
2023-04-13T01:40:35.275Z,90.46
2023-04-13T01:41:37.133Z,90.19
2023-04-13T01:42:39.722Z,90.93
2023-04-13T01:43:42.103Z,91.40
2023-04-13T01:44:44.063Z,90.92
2023-04-13T01:45:49.028Z,91.06
2023-04-13T01:46:52.601Z,91.20
2023-04-13T01:47:57.846Z,90.87
2023-04-13T01:49:01.103Z,91.27
2023-04-13T01:50:12.308Z,91.06
2023-04-13T01:51:20.737Z,90.36
2023-04-13T01:52:23.013Z,90.88
2023-04-13T01:53:28.639Z,90.70
2023-04-13T01:54:32.186Z,90.76
2023-04-13T01:55:38.137Z,90.78
2023-04-13T01:56:40.489Z,89.99
2023-04-13T01:57:47.507Z,90.32
2023-04-13T01:58:52.174Z,89.27
2023-04-13T01:59:54.070Z,89.26
2023-04-13T02:00:56.000Z,89.60
2023-04-13T02:01:59.732Z,89.50
2023-04-13T02:03:02.707Z,89.55
2023-04-13T02:04:05.582Z,89.97
2023-04-13T02:05:10.118Z,89.95
2023-04-13T02:06:12.229Z,90.09
2023-04-13T02:07:14.063Z,90.62
2023-04-13T02:08:18.572Z,90.62
2023-04-13T02:09:20.387Z,90.54
2023-04-13T02:10:22.465Z,90.92
2023-04-13T02:11:24.253Z,91.17
2023-04-13T02:12:26.067Z,90.72
2023-04-13T02:13:27.935Z,91.09
2023-04-13T02:14:31.341Z,90.96
2023-04-13T02:15:39.497Z,90.17
2023-04-13T02:16:41.432Z,90.28
2023-04-13T02:17:45.192Z,90.05
2023-04-13T02:18:47.112Z,90.48
2023-04-13T02:19:49.029Z,90.81
2023-04-13T02:21:08.612Z,91.40
2023-04-13T02:22:10.392Z,90.77
2023-04-13T02:23:15.184Z,91.46
2023-04-13T02:24:17.320Z,92.10
2023-04-13T02:25:19.259Z,92.58
2023-04-13T02:26:21.214Z,92.95
2023-04-13T02:27:24.491Z,93.11
2023-04-13T02:28:28.027Z,93.91
2023-04-13T02:29:30.057Z,94.15
2023-04-13T02:30:32.060Z,93.87
2023-04-13T02:31:34.063Z,94.46
2023-04-13T02:32:37.903Z,94.22
2023-04-13T02:33:40.291Z,94.59
2023-04-13T02:34:42.946Z,95.01
2023-04-13T02:35:45.761Z,93.87
2023-04-13T02:36:47.637Z,94.45
2023-04-13T02:37:49.500Z,93.50
2023-04-13T02:38:51.432Z,93.22
2023-04-13T02:39:53.275Z,93.15
2023-04-13T02:40:59.548Z,93.20
2023-04-13T02:42:02.657Z,92.60
2023-04-13T02:43:05.605Z,92.41
2023-04-13T02:44:08.728Z,92.01
2023-04-13T02:45:12.515Z,91.61
2023-04-13T02:46:14.701Z,91.51
2023-04-13T02:47:17.389Z,91.26
2023-04-13T02:48:20.243Z,90.93
2023-04-13T02:49:22.355Z,91.26
2023-04-13T02:50:24.133Z,90.63
2023-04-13T02:51:27.426Z,90.72
2023-04-13T02:52:29.332Z,90.34
2023-04-13T02:53:31.126Z,90.58
2023-04-13T02:54:33.489Z,90.59
2023-04-13T02:55:35.337Z,90.72
2023-04-13T02:56:38.287Z,90.80
2023-04-13T02:57:42.589Z,90.63
2023-04-13T02:58:45.158Z,90.54
2023-04-13T02:59:47.726Z,90.25
2023-04-13T03:00:50.295Z,90.15
2023-04-13T03:01:52.637Z,90.47
2023-04-13T03:02:55.082Z,90.34
2023-04-13T03:03:57.180Z,90.38
2023-04-13T03:04:59.687Z,90.38
2023-04-13T03:06:01.826Z,91.05
2023-04-13T03:07:08.525Z,90.50
2023-04-13T03:08:10.563Z,90.60
2023-04-13T03:09:12.654Z,90.59
2023-04-13T03:10:14.581Z,90.25
2023-04-13T03:11:17.205Z,90.34
2023-04-13T03:12:20.403Z,90.61
2023-04-13T03:13:22.327Z,90.40
2023-04-13T03:14:24.273Z,89.78
2023-04-13T03:15:26.089Z,90.66
2023-04-13T03:16:28.764Z,90.32
2023-04-13T03:17:30.841Z,90.18
2023-04-13T03:18:32.806Z,90.27
2023-04-13T03:19:36.282Z,90.34
2023-04-13T03:20:38.130Z,91.03
2023-04-13T03:21:41.701Z,91.07
2023-04-13T03:22:45.559Z,90.75
2023-04-13T03:23:47.431Z,90.19
2023-04-13T03:24:49.331Z,90.86
2023-04-13T03:25:51.199Z,90.85
2023-04-13T03:26:55.696Z,91.23
2023-04-13T03:27:57.609Z,91.31
2023-04-13T03:28:59.584Z,91.14
2023-04-13T03:30:01.465Z,91.29
2023-04-13T03:31:04.076Z,91.18
2023-04-13T03:32:06.552Z,91.18
2023-04-13T03:33:08.387Z,90.82
2023-04-13T03:34:10.363Z,91.62
2023-04-13T03:35:12.245Z,91.25
2023-04-13T03:36:14.189Z,91.23
2023-04-13T03:37:16.114Z,91.73
2023-04-13T03:38:18.070Z,91.79
2023-04-13T03:39:19.922Z,90.91
2023-04-13T03:40:21.929Z,91.21
2023-04-13T03:41:24.186Z,90.69
2023-04-13T03:42:26.130Z,90.72
2023-04-13T03:43:28.006Z,90.83
2023-04-13T03:44:32.886Z,90.73
2023-04-13T03:45:34.697Z,90.74
2023-04-13T03:46:39.903Z,90.79
2023-04-13T03:47:41.936Z,90.93
2023-04-13T03:48:44.122Z,90.47
2023-04-13T03:49:46.015Z,90.79
2023-04-13T03:50:47.806Z,90.68
2023-04-13T03:51:49.622Z,91.06
2023-04-13T03:52:51.483Z,90.43
2023-04-13T03:53:53.323Z,90.42
2023-04-13T03:54:55.821Z,89.88
2023-04-13T03:55:57.699Z,90.52
2023-04-13T03:57:01.196Z,89.79
2023-04-13T03:58:03.204Z,89.84
2023-04-13T03:59:05.023Z,90.52
2023-04-13T04:00:11.450Z,90.69
2023-04-13T04:01:14.253Z,90.48
2023-04-13T04:02:16.174Z,90.21
2023-04-13T04:03:18.730Z,90.44
2023-04-13T04:04:21.896Z,89.86
2023-04-13T04:05:24.249Z,90.27
2023-04-13T04:06:29.410Z,89.94
2023-04-13T04:07:31.231Z,90.15
2023-04-13T04:08:33.545Z,90.87
2023-04-13T04:09:35.328Z,90.32
2023-04-13T04:10:37.856Z,90.62
2023-04-13T04:11:39.659Z,89.73
2023-04-13T04:12:41.475Z,90.21
2023-04-13T04:13:43.477Z,90.19
2023-04-13T04:14:45.410Z,90.19
2023-04-13T04:15:47.394Z,90.12
2023-04-13T04:16:49.247Z,90.73
2023-04-13T04:17:51.741Z,90.40
2023-04-13T04:18:54.403Z,90.05
2023-04-13T04:19:56.265Z,89.95
2023-04-13T04:20:58.074Z,89.79
2023-04-13T04:22:04.394Z,89.93
2023-04-13T04:23:06.315Z,90.01
2023-04-13T04:24:09.094Z,90.39
2023-04-13T04:25:12.056Z,89.91
2023-04-13T04:26:14.792Z,89.82
2023-04-13T04:27:16.653Z,90.23
2023-04-13T04:28:18.477Z,89.91
2023-04-13T04:29:23.018Z,89.89
2023-04-13T04:30:25.191Z,89.05
2023-04-13T04:31:27.320Z,89.42
2023-04-13T04:32:29.234Z,89.20
2023-04-13T04:33:31.288Z,89.17
2023-04-13T04:34:33.103Z,89.28
2023-04-13T04:35:35.031Z,89.01
2023-04-13T04:36:42.000Z,89.27
2023-04-13T04:37:43.884Z,89.78
2023-04-13T04:38:46.771Z,89.58
2023-04-13T04:39:48.733Z,90.36
2023-04-13T04:40:50.969Z,89.65
2023-04-13T04:42:03.293Z,88.99
2023-04-13T04:43:05.222Z,89.03
2023-04-13T04:44:08.360Z,89.29
2023-04-13T04:45:15.269Z,88.76
2023-04-13T04:46:17.290Z,88.51
2023-04-13T04:47:19.966Z,89.11
2023-04-13T04:48:25.190Z,88.60
2023-04-13T04:49:28.348Z,88.89
2023-04-13T04:50:30.222Z,89.71
2023-04-13T04:51:32.190Z,89.32
2023-04-13T04:52:34.623Z,89.16
2023-04-13T04:53:36.678Z,89.31
2023-04-13T04:54:39.925Z,89.49
2023-04-13T04:55:41.817Z,88.94
2023-04-13T04:56:43.624Z,89.01
2023-04-13T04:57:46.334Z,89.20
2023-04-13T04:58:48.114Z,89.12
2023-04-13T04:59:49.998Z,88.90
2023-04-13T05:00:52.938Z,89.15
2023-04-13T05:01:54.860Z,88.93
2023-04-13T05:02:58.102Z,89.79
2023-04-13T05:04:01.767Z,89.84
2023-04-13T05:05:03.764Z,89.56
2023-04-13T05:06:05.772Z,89.91
2023-04-13T05:07:07.829Z,90.39
2023-04-13T05:08:09.714Z,89.60
2023-04-13T05:09:11.971Z,89.44
2023-04-13T05:10:13.857Z,89.64
2023-04-13T05:11:15.875Z,89.73
2023-04-13T05:12:18.253Z,90.18
2023-04-13T05:13:20.152Z,90.83
2023-04-13T05:14:22.032Z,91.19
2023-04-13T05:15:24.069Z,90.38
2023-04-13T05:16:26.301Z,90.38
2023-04-13T05:17:28.997Z,90.37
2023-04-13T05:18:31.248Z,90.91
2023-04-13T05:19:35.457Z,90.98
2023-04-13T05:20:39.389Z,90.63
2023-04-13T05:21:41.208Z,90.44
2023-04-13T05:22:43.110Z,90.69
2023-04-13T05:23:45.142Z,90.07
2023-04-13T05:24:46.907Z,90.02
2023-04-13T05:25:49.138Z,90.08
2023-04-13T05:26:51.064Z,89.75
2023-04-13T05:27:53.369Z,90.20
2023-04-13T05:28:55.274Z,89.70
2023-04-13T05:29:57.785Z,89.35
2023-04-13T05:31:03.524Z,89.27
2023-04-13T05:32:05.484Z,89.37
2023-04-13T05:33:09.306Z,89.41
2023-04-13T05:34:11.992Z,89.26
2023-04-13T05:35:13.850Z,89.55
2023-04-13T05:36:15.659Z,89.51
2023-04-13T05:37:17.535Z,89.15
2023-04-13T05:38:19.401Z,89.94
2023-04-13T05:39:22.328Z,89.85
2023-04-13T05:40:24.338Z,90.09
2023-04-13T05:41:26.276Z,89.61
2023-04-13T05:42:28.097Z,89.03
2023-04-13T05:43:29.898Z,89.42
2023-04-13T05:44:32.598Z,89.33
2023-04-13T05:45:34.448Z,89.46
2023-04-13T05:46:36.897Z,90.06
2023-04-13T05:47:38.866Z,90.35
2023-04-13T05:48:42.298Z,89.65
2023-04-13T05:49:44.188Z,89.31
2023-04-13T05:50:46.013Z,89.74
2023-04-13T05:51:48.153Z,89.75
2023-04-13T05:52:50.011Z,89.54
2023-04-13T05:53:52.541Z,89.66
2023-04-13T05:54:55.090Z,89.21
2023-04-13T05:55:57.470Z,88.93
2023-04-13T05:56:59.872Z,88.50
2023-04-13T05:58:04.534Z,88.52
2023-04-13T05:59:06.533Z,88.31
2023-04-13T06:00:10.726Z,88.92
2023-04-13T06:01:13.137Z,89.26
2023-04-13T06:02:15.129Z,88.66
2023-04-13T06:03:17.570Z,88.67
2023-04-13T06:04:19.896Z,89.00
2023-04-13T06:05:22.664Z,88.43
2023-04-13T06:06:25.362Z,88.85
2023-04-13T06:07:28.349Z,88.62
2023-04-13T06:08:33.034Z,88.17
2023-04-13T06:09:34.896Z,88.72
2023-04-13T06:10:37.183Z,89.29
2023-04-13T06:11:39.133Z,89.04
2023-04-13T06:12:41.684Z,88.58
2023-04-13T06:13:44.089Z,88.67
2023-04-13T06:14:46.494Z,89.11
2023-04-13T06:15:48.757Z,89.54
2023-04-13T06:16:50.694Z,89.59
2023-04-13T06:17:53.477Z,89.33
2023-04-13T06:18:55.614Z,89.20
2023-04-13T06:19:57.557Z,88.46
2023-04-13T06:21:00.247Z,88.81
2023-04-13T06:22:02.487Z,88.70
2023-04-13T06:23:04.371Z,87.83
2023-04-13T06:24:06.403Z,87.54
2023-04-13T06:25:08.867Z,87.85
2023-04-13T06:26:10.771Z,86.97
2023-04-13T06:27:13.221Z,86.91
2023-04-13T06:28:15.226Z,87.08
2023-04-13T06:29:17.066Z,87.26
2023-04-13T06:30:19.145Z,87.51
2023-04-13T06:31:21.790Z,87.40
2023-04-13T06:32:23.802Z,87.54
2023-04-13T06:33:26.570Z,87.56
2023-04-13T06:34:28.510Z,87.71
2023-04-13T06:35:30.982Z,87.76
2023-04-13T06:36:33.141Z,86.97
2023-04-13T06:37:36.198Z,86.97
2023-04-13T06:38:37.984Z,86.69
2023-04-13T06:39:39.819Z,87.13
2023-04-13T06:40:42.221Z,86.92
2023-04-13T06:41:44.178Z,86.68
2023-04-13T06:42:46.089Z,86.53
2023-04-13T06:43:47.934Z,86.20
2023-04-13T06:44:49.826Z,86.72
2023-04-13T06:45:57.990Z,86.65
2023-04-13T06:46:59.943Z,87.35
2023-04-13T06:48:01.946Z,86.92
2023-04-13T06:49:03.885Z,86.91
2023-04-13T06:50:06.891Z,86.44
2023-04-13T06:51:08.733Z,87.21
2023-04-13T06:52:10.927Z,87.19
2023-04-13T06:53:12.740Z,87.21
2023-04-13T06:54:14.706Z,87.00
2023-04-13T06:55:17.702Z,86.73
2023-04-13T06:56:19.653Z,86.93
2023-04-13T06:57:21.724Z,86.97
2023-04-13T06:58:23.701Z,87.54
2023-04-13T06:59:25.777Z,87.28
2023-04-13T07:00:30.101Z,87.10
2023-04-13T07:01:32.796Z,86.92
2023-04-13T07:02:35.021Z,87.02
2023-04-13T07:03:37.330Z,87.85
2023-04-13T07:04:39.483Z,87.71
2023-04-13T07:05:41.675Z,87.80
2023-04-13T07:06:44.118Z,87.46
2023-04-13T07:07:46.953Z,87.48
2023-04-13T07:08:49.164Z,87.78
2023-04-13T07:09:51.054Z,87.14
2023-04-13T07:10:53.831Z,88.05
2023-04-13T07:11:55.610Z,88.06
2023-04-13T07:12:57.461Z,88.11
2023-04-13T07:13:59.268Z,87.93
2023-04-13T07:15:01.295Z,88.42
2023-04-13T07:16:04.348Z,88.28
2023-04-13T07:17:06.356Z,87.77
2023-04-13T07:18:08.271Z,87.77
2023-04-13T07:19:10.115Z,87.61
2023-04-13T07:20:12.280Z,87.47
2023-04-13T07:21:14.178Z,87.24
2023-04-13T07:22:17.008Z,86.74
2023-04-13T07:23:19.460Z,87.62
2023-04-13T07:24:21.307Z,86.54
2023-04-13T07:25:23.139Z,87.09
2023-04-13T07:26:25.005Z,86.81
2023-04-13T07:27:26.929Z,86.74
2023-04-13T07:28:28.898Z,86.78
2023-04-13T07:29:31.257Z,86.75
2023-04-13T07:30:35.619Z,86.51
2023-04-13T07:31:38.317Z,87.03
2023-04-13T07:32:41.362Z,87.26
2023-04-13T07:33:43.297Z,86.58
2023-04-13T07:34:45.111Z,87.09
2023-04-13T07:35:47.030Z,87.26
2023-04-13T07:36:48.956Z,87.41
2023-04-13T07:37:52.811Z,86.78
2023-04-13T07:38:55.313Z,87.18
2023-04-13T07:39:57.234Z,86.94
2023-04-13T07:40:59.182Z,87.15
2023-04-13T07:42:01.967Z,87.61
2023-04-13T07:43:03.855Z,87.31
2023-04-13T07:44:06.428Z,87.53
2023-04-13T07:45:08.482Z,88.44
2023-04-13T07:46:12.229Z,88.48
2023-04-13T07:47:14.583Z,88.52
2023-04-13T07:48:16.435Z,88.40
2023-04-13T07:49:18.388Z,88.73
2023-04-13T07:50:20.310Z,88.66
2023-04-13T07:51:22.192Z,88.93
2023-04-13T07:52:24.051Z,88.54
2023-04-13T07:53:26.468Z,88.15
2023-04-13T07:54:28.297Z,87.77
2023-04-13T07:55:30.107Z,87.94
2023-04-13T07:56:32.026Z,87.85
2023-04-13T07:57:34.003Z,88.48
2023-04-13T07:58:35.939Z,88.57
2023-04-13T07:59:37.815Z,88.96
2023-04-13T08:00:39.732Z,89.54
2023-04-13T08:01:41.576Z,88.73
2023-04-13T08:02:43.676Z,88.71
2023-04-13T08:03:45.744Z,88.18
2023-04-13T08:04:47.979Z,88.15
2023-04-13T08:05:49.895Z,87.95
2023-04-13T08:06:52.290Z,88.62
2023-04-13T08:07:54.264Z,88.82
2023-04-13T08:08:56.310Z,88.21
2023-04-13T08:09:58.147Z,88.36
2023-04-13T08:11:00.543Z,88.04
2023-04-13T08:12:03.435Z,87.95
2023-04-13T08:13:05.284Z,88.02
2023-04-13T08:14:09.951Z,87.70
2023-04-13T08:15:11.981Z,88.11
2023-04-13T08:16:14.363Z,87.43
2023-04-13T08:17:16.228Z,87.29
2023-04-13T08:18:18.041Z,87.23
2023-04-13T08:19:20.035Z,86.81
2023-04-13T08:20:21.867Z,86.59
2023-04-13T08:21:24.156Z,86.47
2023-04-13T08:22:25.986Z,87.09
2023-04-13T08:23:27.824Z,86.94
2023-04-13T08:24:29.816Z,87.38
2023-04-13T08:25:32.264Z,87.56
2023-04-13T08:26:34.129Z,87.86
2023-04-13T08:27:36.110Z,88.18
2023-04-13T08:28:38.299Z,87.36
2023-04-13T08:29:40.308Z,87.44
2023-04-13T08:30:46.382Z,87.64
2023-04-13T08:31:48.417Z,87.20
2023-04-13T08:32:50.335Z,86.99
2023-04-13T08:33:52.218Z,87.54
2023-04-13T08:34:55.045Z,86.86
2023-04-13T08:35:57.117Z,87.34
2023-04-13T08:36:59.369Z,87.28
2023-04-13T08:38:02.890Z,87.00
2023-04-13T08:39:06.305Z,86.89
2023-04-13T08:40:12.301Z,87.41
2023-04-13T08:41:14.524Z,87.53
2023-04-13T08:42:16.514Z,87.13
2023-04-13T08:43:19.912Z,87.42
2023-04-13T08:44:21.773Z,88.15
2023-04-13T08:45:23.755Z,87.76
2023-04-13T08:46:25.712Z,88.28
2023-04-13T08:47:28.447Z,87.93
2023-04-13T08:48:42.509Z,87.35
2023-04-13T08:49:50.103Z,87.15
2023-04-13T08:50:52.625Z,87.01
2023-04-13T08:52:00.025Z,87.15
2023-04-13T08:53:02.323Z,87.03
2023-04-13T08:54:04.898Z,86.78
2023-04-13T08:55:06.962Z,86.76
2023-04-13T08:56:12.651Z,87.53
2023-04-13T08:57:16.848Z,87.26
2023-04-13T08:58:23.164Z,87.64
2023-04-13T08:59:27.544Z,87.08
2023-04-13T09:00:30.257Z,86.65
2023-04-13T09:01:33.006Z,86.98
2023-04-13T09:02:37.154Z,86.41
2023-04-13T09:03:46.211Z,86.41
2023-04-13T09:04:51.022Z,86.36
2023-04-13T09:05:56.138Z,86.66
2023-04-13T09:07:00.236Z,86.78
2023-04-13T09:08:05.013Z,87.12
2023-04-13T09:09:11.001Z,86.91
2023-04-13T09:10:16.662Z,86.44
2023-04-13T09:11:18.540Z,86.51
2023-04-13T09:12:20.718Z,85.55
2023-04-13T09:13:22.681Z,85.65
2023-04-13T09:14:24.810Z,85.54
2023-04-13T09:15:26.653Z,84.50
2023-04-13T09:16:28.656Z,83.37
2023-04-13T09:17:34.721Z,84.36
2023-04-13T09:18:36.709Z,84.40
2023-04-13T09:19:38.962Z,84.36
2023-04-13T09:20:41.056Z,85.12
2023-04-13T09:21:43.805Z,85.06
2023-04-13T09:22:46.140Z,84.82
2023-04-13T09:23:57.997Z,85.64
2023-04-13T09:24:59.865Z,86.24
2023-04-13T09:26:07.553Z,85.64
2023-04-13T09:27:20.456Z,85.69
2023-04-13T09:28:22.529Z,84.72
2023-04-13T09:29:24.351Z,85.59
2023-04-13T09:30:27.506Z,85.56
2023-04-13T09:31:29.434Z,85.20
2023-04-13T09:32:31.383Z,85.74
2023-04-13T09:33:46.074Z,86.12
2023-04-13T09:34:57.934Z,86.01
2023-04-13T09:36:08.906Z,86.29
2023-04-13T09:37:14.658Z,86.82
2023-04-13T09:38:16.675Z,87.85
2023-04-13T09:39:24.302Z,87.93
2023-04-13T09:40:26.936Z,87.32
2023-04-13T09:41:35.391Z,86.84
2023-04-13T09:42:38.762Z,87.15
2023-04-13T09:43:41.161Z,86.94
2023-04-13T09:44:43.109Z,86.99
2023-04-13T09:45:45.019Z,86.39
2023-04-13T09:47:03.236Z,85.87
2023-04-13T09:48:06.082Z,85.56
2023-04-13T09:49:08.108Z,85.89
2023-04-13T09:50:16.953Z,85.62
2023-04-13T09:51:18.985Z,85.28
2023-04-13T09:52:23.320Z,85.56
2023-04-13T09:53:25.650Z,85.44
2023-04-13T09:54:28.844Z,85.67
2023-04-13T09:55:33.331Z,85.44
2023-04-13T09:56:47.742Z,85.09
2023-04-13T09:57:50.313Z,85.17
2023-04-13T09:58:53.589Z,84.70
2023-04-13T09:59:56.957Z,85.60
2023-04-13T10:00:58.877Z,84.55
2023-04-13T10:02:02.550Z,84.54
2023-04-13T10:03:06.805Z,85.11
2023-04-13T10:04:10.479Z,85.84
2023-04-13T10:05:12.653Z,85.67
2023-04-13T10:06:14.772Z,85.45
2023-04-13T10:07:16.791Z,85.32
2023-04-13T10:08:27.350Z,85.49
2023-04-13T10:09:33.005Z,85.63
2023-04-13T10:10:34.958Z,81.77
2023-04-13T10:11:46.998Z,81.67
2023-04-13T10:12:54.051Z,82.86
2023-04-13T10:13:59.196Z,82.54
2023-04-13T10:15:10.551Z,83.92
2023-04-13T10:16:23.594Z,84.02
2023-04-13T10:17:57.978Z,82.68
2023-04-13T10:19:10.180Z,81.86
2023-04-13T10:20:14.069Z,81.33
2023-04-13T10:21:17.011Z,82.21
2023-04-13T10:22:20.488Z,82.42
2023-04-13T10:23:22.527Z,82.81
2023-04-13T10:24:24.411Z,82.85
2023-04-13T10:25:33.844Z,82.18
2023-04-13T10:26:37.778Z,80.64
2023-04-13T10:27:39.875Z,80.37
2023-04-13T10:28:45.315Z,81.17
2023-04-13T10:29:47.812Z,81.23
2023-04-13T10:30:52.957Z,80.96
2023-04-13T10:31:56.185Z,80.77
2023-04-13T10:33:02.259Z,80.32
2023-04-13T10:34:05.348Z,80.38
2023-04-13T10:35:12.050Z,81.50
2023-04-13T10:36:13.963Z,82.13
2023-04-13T10:37:19.870Z,84.21
2023-04-13T10:38:22.041Z,82.57
2023-04-13T10:39:27.959Z,79.83
2023-04-13T10:40:29.886Z,79.21
2023-04-13T10:41:31.867Z,79.04
2023-04-13T10:42:52.552Z,79.72
2023-04-13T10:44:08.223Z,79.15
2023-04-13T10:45:24.294Z,78.68
2023-04-13T10:46:26.218Z,78.78
2023-04-13T10:47:36.339Z,79.76
2023-04-13T10:48:38.268Z,80.11
2023-04-13T10:49:41.227Z,80.34
2023-04-13T10:50:43.122Z,80.26
2023-04-13T10:51:45.788Z,79.87
2023-04-13T10:53:07.242Z,79.62
2023-04-13T10:54:10.065Z,80.14
2023-04-13T10:55:13.214Z,79.96
2023-04-13T10:56:19.356Z,80.72
2023-04-13T10:57:21.971Z,80.63
2023-04-13T10:58:24.181Z,80.96
2023-04-13T11:00:54.555Z,81.93
2023-04-13T11:01:56.460Z,80.17
2023-04-13T11:02:59.021Z,81.00
2023-04-13T11:04:07.754Z,81.18
2023-04-13T11:05:17.230Z,81.49
2023-04-13T11:06:19.118Z,81.84
2023-04-13T11:07:23.595Z,81.37
2023-04-13T11:08:28.280Z,80.65
2023-04-13T11:09:30.410Z,80.96
2023-04-13T11:10:32.702Z,80.44
2023-04-13T11:11:36.934Z,79.89
2023-04-13T11:12:38.986Z,79.48
2023-04-13T11:13:44.753Z,79.38
2023-04-13T11:14:50.807Z,78.68
2023-04-13T11:16:01.518Z,79.09
2023-04-13T11:17:03.513Z,79.11
2023-04-13T11:18:05.494Z,79.49
2023-04-13T11:19:08.296Z,80.09
2023-04-13T11:20:11.874Z,80.21
2023-04-13T11:21:14.456Z,80.82
2023-04-13T11:22:18.218Z,81.48
2023-04-13T11:23:24.105Z,82.13
2023-04-13T11:24:27.322Z,82.26
2023-04-13T11:25:29.215Z,83.07
2023-04-13T11:26:31.698Z,82.58
2023-04-13T11:27:33.608Z,82.87
2023-04-13T11:28:40.419Z,82.61
2023-04-13T11:29:42.348Z,83.67
2023-04-13T11:30:51.686Z,83.27
2023-04-13T11:31:53.533Z,83.20
2023-04-13T11:32:56.731Z,83.97
2023-04-13T11:33:58.698Z,83.16
2023-04-13T11:35:08.415Z,83.83
2023-04-13T11:36:12.188Z,83.30
2023-04-13T11:37:14.132Z,83.59
2023-04-13T11:38:20.510Z,84.06
2023-04-13T11:39:23.490Z,83.92
2023-04-13T11:40:26.069Z,84.13
2023-04-13T11:41:29.248Z,84.29
2023-04-13T11:42:31.981Z,83.90
2023-04-13T11:43:34.361Z,84.20
2023-04-13T11:44:37.456Z,83.98
2023-04-13T11:45:39.410Z,83.78
2023-04-13T11:46:41.654Z,84.04
2023-04-13T11:47:44.278Z,84.18
2023-04-13T11:48:46.280Z,84.91
2023-04-13T11:49:48.334Z,84.59
2023-04-13T11:50:50.967Z,84.96
2023-04-13T11:51:52.888Z,85.68
2023-04-13T11:52:58.288Z,85.56
2023-04-13T11:54:01.336Z,85.21
2023-04-13T11:55:19.148Z,84.79
2023-04-13T11:56:26.310Z,84.48
2023-04-13T11:57:29.306Z,83.64
2023-04-13T11:58:32.302Z,83.53
2023-04-13T11:59:34.213Z,83.84
2023-04-13T12:00:42.350Z,83.38
2023-04-13T12:01:53.207Z,83.07
2023-04-13T12:03:02.319Z,82.52
2023-04-13T12:04:14.568Z,82.17
2023-04-13T12:05:25.627Z,82.58
2023-04-13T12:06:28.106Z,83.02
2023-04-13T12:07:31.306Z,82.65
2023-04-13T12:08:33.873Z,82.47
2023-04-13T12:13:35.921Z,82.52
2023-04-13T12:14:54.134Z,82.41
2023-04-13T12:16:08.513Z,83.12
2023-04-13T12:18:24.651Z,82.52
2023-04-13T12:19:30.912Z,82.38
2023-04-13T12:20:36.927Z,81.66
2023-04-13T12:21:40.186Z,82.87
2023-04-13T12:22:52.559Z,82.02
2023-04-13T12:23:59.908Z,82.96
2023-04-13T12:25:02.457Z,82.72
2023-04-13T12:26:33.152Z,82.88
2023-04-13T12:27:39.838Z,83.83
2023-04-13T12:28:41.688Z,83.31
2023-04-13T12:29:43.518Z,83.33
2023-04-13T12:30:46.250Z,82.11
2023-04-13T12:31:48.216Z,83.00
2023-04-13T12:32:54.353Z,82.43
2023-04-13T12:33:56.562Z,81.60
2023-04-13T12:34:58.534Z,80.34
2023-04-13T12:36:00.601Z,80.35
2023-04-13T12:37:02.715Z,80.26
2023-04-13T12:38:05.241Z,80.58
2023-04-13T12:39:07.230Z,80.77
2023-04-13T12:40:13.166Z,81.06
2023-04-13T12:41:15.064Z,81.50
2023-04-13T12:42:16.944Z,82.55
2023-04-13T12:43:18.840Z,82.43
2023-04-13T12:44:21.068Z,83.07
2023-04-13T12:45:22.908Z,82.26
2023-04-13T12:46:25.478Z,80.49
2023-04-13T12:47:27.465Z,80.28
2023-04-13T12:48:30.988Z,80.56
2023-04-13T12:49:32.935Z,79.50
2023-04-13T12:50:34.837Z,79.29
2023-04-13T12:51:36.770Z,78.57
2023-04-13T12:52:41.239Z,79.15
2023-04-13T12:53:43.119Z,79.14
2023-04-13T12:54:44.943Z,79.45
2023-04-13T12:55:46.874Z,80.05
2023-04-13T12:56:48.736Z,78.22
2023-04-13T12:57:50.625Z,78.42
2023-04-13T12:58:52.615Z,79.00
2023-04-13T12:59:55.045Z,79.46
2023-04-13T13:00:56.897Z,80.27
2023-04-13T13:01:58.818Z,80.22
2023-04-13T13:03:12.865Z,80.59
2023-04-13T13:04:15.177Z,81.36
2023-04-13T13:05:17.702Z,82.90
2023-04-13T13:06:19.561Z,82.73
2023-04-13T13:07:21.980Z,83.37
2023-04-13T13:08:23.812Z,83.78
2023-04-13T13:09:26.074Z,83.77
2023-04-13T13:10:29.879Z,82.79
2023-04-13T13:11:32.342Z,83.48
2023-04-13T13:12:34.204Z,83.39
2023-04-13T13:13:36.142Z,82.09
2023-04-13T13:14:38.009Z,83.27
2023-04-13T13:15:39.962Z,83.22
2023-04-13T13:16:41.822Z,83.39
2023-04-13T13:17:43.901Z,81.96
2023-04-13T13:18:50.903Z,82.05
2023-04-13T13:19:54.873Z,82.96
2023-04-13T13:20:57.395Z,82.03
2023-04-13T13:22:00.061Z,81.43
2023-04-13T13:23:01.987Z,81.92
2023-04-13T13:24:03.893Z,81.96
2023-04-13T13:25:06.376Z,81.24
2023-04-13T13:26:23.015Z,81.74
2023-04-13T13:28:32.113Z,80.12
2023-04-13T13:29:37.234Z,80.25
2023-04-13T13:30:39.166Z,79.96
2023-04-13T13:31:41.850Z,79.83
2023-04-13T13:32:43.776Z,78.05
2023-04-13T13:33:45.705Z,78.46
2023-04-13T13:34:47.527Z,78.70
2023-04-13T13:35:49.793Z,78.23
2023-04-13T13:36:51.789Z,78.17
2023-04-13T13:37:53.693Z,79.00
2023-04-13T13:38:55.601Z,79.32
2023-04-13T13:39:58.184Z,78.92
2023-04-13T13:41:00.011Z,78.15
2023-04-13T13:42:03.704Z,78.79
2023-04-13T13:43:05.649Z,78.67
2023-04-13T13:44:07.580Z,78.21
2023-04-13T13:45:09.694Z,78.68